sensor_id;sensor_type;location;lat;lon;timestamp;P1;durP1;ratioP1;P2;durP2;ratioP2
55090;SDS011;40985;53.180;5.800;2023-04-15T00:00:29;10.10;;;3.47;;
55090;SDS011;40985;53.180;5.800;2023-04-15T00:02:55;8.15;;;4.30;;
55090;SDS011;40985;53.180;5.800;2023-04-15T00:05:20;13.63;;;4.95;;
55090;SDS011;40985;53.180;5.800;2023-04-15T00:07:46;8.95;;;3.45;;
55090;SDS011;40985;53.180;5.800;2023-04-15T00:10:12;8.95;;;3.70;;
55090;SDS011;40985;53.180;5.800;2023-04-15T00:12:38;8.38;;;3.45;;
55090;SDS011;40985;53.180;5.800;2023-04-15T00:15:05;13.57;;;3.50;;
55090;SDS011;40985;53.180;5.800;2023-04-15T00:17:33;7.07;;;3.53;;
55090;SDS011;40985;53.180;5.800;2023-04-15T00:19:59;8.52;;;3.42;;
55090;SDS011;40985;53.180;5.800;2023-04-15T00:22:28;5.97;;;3.40;;
55090;SDS011;40985;53.180;5.800;2023-04-15T00:24:53;14.82;;;4.50;;
55090;SDS011;40985;53.180;5.800;2023-04-15T00:27:19;8.30;;;3.50;;
55090;SDS011;40985;53.180;5.800;2023-04-15T00:29:45;11.50;;;4.78;;
55090;SDS011;40985;53.180;5.800;2023-04-15T00:32:10;8.23;;;4.07;;
55090;SDS011;40985;53.180;5.800;2023-04-15T00:34:36;7.70;;;3.70;;
55090;SDS011;40985;53.180;5.800;2023-04-15T00:37:05;7.72;;;4.55;;
55090;SDS011;40985;53.180;5.800;2023-04-15T00:39:31;7.82;;;3.88;;
55090;SDS011;40985;53.180;5.800;2023-04-15T00:42:01;10.90;;;4.38;;
55090;SDS011;40985;53.180;5.800;2023-04-15T00:44:28;11.55;;;4.28;;
55090;SDS011;40985;53.180;5.800;2023-04-15T00:46:54;10.70;;;4.05;;
55090;SDS011;40985;53.180;5.800;2023-04-15T00:49:20;10.05;;;4.30;;
55090;SDS011;40985;53.180;5.800;2023-04-15T00:51:47;11.60;;;5.28;;
55090;SDS011;40985;53.180;5.800;2023-04-15T00:54:13;8.82;;;4.15;;
55090;SDS011;40985;53.180;5.800;2023-04-15T00:56:38;9.50;;;4.85;;
55090;SDS011;40985;53.180;5.800;2023-04-15T00:59:05;10.25;;;3.92;;
55090;SDS011;40985;53.180;5.800;2023-04-15T01:01:32;10.13;;;4.30;;
55090;SDS011;40985;53.180;5.800;2023-04-15T01:03:59;8.95;;;4.40;;
55090;SDS011;40985;53.180;5.800;2023-04-15T01:06:26;11.00;;;4.55;;
55090;SDS011;40985;53.180;5.800;2023-04-15T01:08:56;10.23;;;5.22;;
55090;SDS011;40985;53.180;5.800;2023-04-15T01:11:22;11.07;;;6.15;;
55090;SDS011;40985;53.180;5.800;2023-04-15T01:13:49;13.98;;;5.00;;
55090;SDS011;40985;53.180;5.800;2023-04-15T01:16:16;12.27;;;6.43;;
55090;SDS011;40985;53.180;5.800;2023-04-15T01:18:42;10.52;;;5.57;;
55090;SDS011;40985;53.180;5.800;2023-04-15T01:21:08;8.35;;;6.30;;
55090;SDS011;40985;53.180;5.800;2023-04-15T01:23:35;9.40;;;6.22;;
55090;SDS011;40985;53.180;5.800;2023-04-15T01:26:04;14.63;;;7.00;;
55090;SDS011;40985;53.180;5.800;2023-04-15T01:28:33;13.85;;;7.15;;
55090;SDS011;40985;53.180;5.800;2023-04-15T01:31:09;14.00;;;7.78;;
55090;SDS011;40985;53.180;5.800;2023-04-15T01:33:37;11.98;;;6.88;;
55090;SDS011;40985;53.180;5.800;2023-04-15T01:36:07;12.57;;;7.53;;
55090;SDS011;40985;53.180;5.800;2023-04-15T01:38:37;17.95;;;7.53;;
55090;SDS011;40985;53.180;5.800;2023-04-15T01:41:03;12.25;;;7.40;;
55090;SDS011;40985;53.180;5.800;2023-04-15T01:43:30;10.15;;;7.13;;
55090;SDS011;40985;53.180;5.800;2023-04-15T01:45:56;20.02;;;7.82;;
55090;SDS011;40985;53.180;5.800;2023-04-15T01:48:22;15.88;;;8.93;;
55090;SDS011;40985;53.180;5.800;2023-04-15T01:50:47;15.05;;;8.65;;
55090;SDS011;40985;53.180;5.800;2023-04-15T01:53:13;14.13;;;8.23;;
55090;SDS011;40985;53.180;5.800;2023-04-15T01:55:40;14.02;;;7.95;;
55090;SDS011;40985;53.180;5.800;2023-04-15T01:58:05;12.98;;;7.95;;
55090;SDS011;40985;53.180;5.800;2023-04-15T02:00:31;12.50;;;9.02;;
55090;SDS011;40985;53.180;5.800;2023-04-15T02:02:57;15.23;;;9.73;;
55090;SDS011;40985;53.180;5.800;2023-04-15T02:05:23;15.30;;;9.52;;
55090;SDS011;40985;53.180;5.800;2023-04-15T02:07:49;16.30;;;9.77;;
55090;SDS011;40985;53.180;5.800;2023-04-15T02:10:16;14.27;;;9.85;;
55090;SDS011;40985;53.180;5.800;2023-04-15T02:12:41;13.38;;;9.40;;
55090;SDS011;40985;53.180;5.800;2023-04-15T02:15:07;15.70;;;9.63;;
55090;SDS011;40985;53.180;5.800;2023-04-15T02:17:34;14.38;;;10.10;;
55090;SDS011;40985;53.180;5.800;2023-04-15T02:20:01;11.65;;;9.35;;
55090;SDS011;40985;53.180;5.800;2023-04-15T02:22:29;13.65;;;9.55;;
55090;SDS011;40985;53.180;5.800;2023-04-15T02:24:55;17.75;;;10.00;;
55090;SDS011;40985;53.180;5.800;2023-04-15T02:27:21;15.43;;;9.40;;
55090;SDS011;40985;53.180;5.800;2023-04-15T02:29:47;13.45;;;9.80;;
55090;SDS011;40985;53.180;5.800;2023-04-15T02:32:15;16.63;;;10.30;;
55090;SDS011;40985;53.180;5.800;2023-04-15T02:34:41;20.00;;;10.45;;
55090;SDS011;40985;53.180;5.800;2023-04-15T02:37:07;13.38;;;9.95;;
55090;SDS011;40985;53.180;5.800;2023-04-15T02:39:34;16.70;;;11.27;;
55090;SDS011;40985;53.180;5.800;2023-04-15T02:42:00;18.23;;;11.02;;
55090;SDS011;40985;53.180;5.800;2023-04-15T02:44:26;14.00;;;10.57;;
55090;SDS011;40985;53.180;5.800;2023-04-15T02:46:52;16.02;;;10.77;;
55090;SDS011;40985;53.180;5.800;2023-04-15T02:49:22;19.13;;;11.05;;
55090;SDS011;40985;53.180;5.800;2023-04-15T02:51:48;15.57;;;10.75;;
55090;SDS011;40985;53.180;5.800;2023-04-15T02:54:20;16.95;;;10.90;;
55090;SDS011;40985;53.180;5.800;2023-04-15T02:56:49;12.63;;;9.77;;
55090;SDS011;40985;53.180;5.800;2023-04-15T02:59:16;13.55;;;10.35;;
55090;SDS011;40985;53.180;5.800;2023-04-15T03:01:43;18.25;;;11.50;;
55090;SDS011;40985;53.180;5.800;2023-04-15T03:04:08;15.13;;;11.07;;
55090;SDS011;40985;53.180;5.800;2023-04-15T03:06:34;13.63;;;10.20;;
55090;SDS011;40985;53.180;5.800;2023-04-15T03:09:00;13.68;;;10.73;;
55090;SDS011;40985;53.180;5.800;2023-04-15T03:11:26;13.35;;;10.50;;
55090;SDS011;40985;53.180;5.800;2023-04-15T03:13:53;16.52;;;11.07;;
55090;SDS011;40985;53.180;5.800;2023-04-15T03:16:18;15.50;;;11.02;;
55090;SDS011;40985;53.180;5.800;2023-04-15T03:18:44;16.67;;;10.40;;
55090;SDS011;40985;53.180;5.800;2023-04-15T03:21:10;13.25;;;10.43;;
55090;SDS011;40985;53.180;5.800;2023-04-15T03:23:35;16.30;;;10.00;;
55090;SDS011;40985;53.180;5.800;2023-04-15T03:26:01;16.08;;;10.70;;
55090;SDS011;40985;53.180;5.800;2023-04-15T03:28:28;15.05;;;10.45;;
55090;SDS011;40985;53.180;5.800;2023-04-15T03:30:54;14.20;;;10.45;;
55090;SDS011;40985;53.180;5.800;2023-04-15T03:33:20;18.30;;;12.43;;
55090;SDS011;40985;53.180;5.800;2023-04-15T03:35:46;14.18;;;11.63;;
55090;SDS011;40985;53.180;5.800;2023-04-15T03:38:11;18.42;;;14.13;;
55090;SDS011;40985;53.180;5.800;2023-04-15T03:40:37;16.52;;;12.38;;
55090;SDS011;40985;53.180;5.800;2023-04-15T03:43:07;16.33;;;12.02;;
55090;SDS011;40985;53.180;5.800;2023-04-15T03:45:32;15.98;;;11.93;;
55090;SDS011;40985;53.180;5.800;2023-04-15T03:47:58;19.67;;;13.90;;
55090;SDS011;40985;53.180;5.800;2023-04-15T03:50:24;16.00;;;12.13;;
55090;SDS011;40985;53.180;5.800;2023-04-15T03:52:49;15.95;;;11.95;;
55090;SDS011;40985;53.180;5.800;2023-04-15T03:55:15;15.48;;;12.27;;
55090;SDS011;40985;53.180;5.800;2023-04-15T03:57:42;18.92;;;12.88;;
55090;SDS011;40985;53.180;5.800;2023-04-15T04:00:08;13.98;;;12.50;;
55090;SDS011;40985;53.180;5.800;2023-04-15T04:02:34;19.45;;;13.55;;
55090;SDS011;40985;53.180;5.800;2023-04-15T04:05:00;15.82;;;12.65;;
55090;SDS011;40985;53.180;5.800;2023-04-15T04:07:26;18.50;;;12.73;;
55090;SDS011;40985;53.180;5.800;2023-04-15T04:09:52;18.90;;;12.65;;
55090;SDS011;40985;53.180;5.800;2023-04-15T04:12:17;17.65;;;12.63;;
55090;SDS011;40985;53.180;5.800;2023-04-15T04:14:43;20.13;;;13.75;;
55090;SDS011;40985;53.180;5.800;2023-04-15T04:17:09;18.25;;;13.35;;
55090;SDS011;40985;53.180;5.800;2023-04-15T04:19:34;18.70;;;13.75;;
55090;SDS011;40985;53.180;5.800;2023-04-15T04:22:00;20.95;;;14.02;;
55090;SDS011;40985;53.180;5.800;2023-04-15T04:24:26;18.50;;;15.23;;
55090;SDS011;40985;53.180;5.800;2023-04-15T04:26:52;20.67;;;15.05;;
55090;SDS011;40985;53.180;5.800;2023-04-15T04:29:17;22.27;;;15.43;;
55090;SDS011;40985;53.180;5.800;2023-04-15T04:31:43;19.42;;;14.20;;
55090;SDS011;40985;53.180;5.800;2023-04-15T04:34:09;21.63;;;14.25;;
55090;SDS011;40985;53.180;5.800;2023-04-15T04:36:34;17.35;;;12.90;;
55090;SDS011;40985;53.180;5.800;2023-04-15T04:39:00;18.20;;;13.45;;
55090;SDS011;40985;53.180;5.800;2023-04-15T04:41:26;17.42;;;12.75;;
55090;SDS011;40985;53.180;5.800;2023-04-15T04:43:52;14.32;;;12.32;;
55090;SDS011;40985;53.180;5.800;2023-04-15T04:46:18;17.17;;;12.80;;
55090;SDS011;40985;53.180;5.800;2023-04-15T04:48:43;17.73;;;13.02;;
55090;SDS011;40985;53.180;5.800;2023-04-15T04:51:09;16.55;;;13.55;;
55090;SDS011;40985;53.180;5.800;2023-04-15T04:53:35;16.20;;;13.60;;
55090;SDS011;40985;53.180;5.800;2023-04-15T04:56:02;17.40;;;13.63;;
55090;SDS011;40985;53.180;5.800;2023-04-15T04:58:27;21.38;;;15.32;;
55090;SDS011;40985;53.180;5.800;2023-04-15T05:00:53;20.17;;;14.77;;
55090;SDS011;40985;53.180;5.800;2023-04-15T05:03:20;21.77;;;14.90;;
55090;SDS011;40985;53.180;5.800;2023-04-15T05:05:46;19.20;;;13.95;;
55090;SDS011;40985;53.180;5.800;2023-04-15T05:08:13;20.25;;;14.75;;
55090;SDS011;40985;53.180;5.800;2023-04-15T05:10:39;21.15;;;15.60;;
55090;SDS011;40985;53.180;5.800;2023-04-15T05:13:05;20.02;;;15.45;;
55090;SDS011;40985;53.180;5.800;2023-04-15T05:15:31;24.55;;;15.98;;
55090;SDS011;40985;53.180;5.800;2023-04-15T05:17:57;19.55;;;13.95;;
55090;SDS011;40985;53.180;5.800;2023-04-15T05:20:23;19.35;;;15.10;;
55090;SDS011;40985;53.180;5.800;2023-04-15T05:22:48;20.92;;;14.75;;
55090;SDS011;40985;53.180;5.800;2023-04-15T05:25:14;18.90;;;14.00;;
55090;SDS011;40985;53.180;5.800;2023-04-15T05:27:40;18.02;;;14.70;;
55090;SDS011;40985;53.180;5.800;2023-04-15T05:30:06;20.02;;;15.13;;
55090;SDS011;40985;53.180;5.800;2023-04-15T05:32:33;20.90;;;14.73;;
55090;SDS011;40985;53.180;5.800;2023-04-15T05:34:58;18.45;;;13.35;;
55090;SDS011;40985;53.180;5.800;2023-04-15T05:37:25;16.67;;;13.63;;
55090;SDS011;40985;53.180;5.800;2023-04-15T05:39:50;17.55;;;14.32;;
55090;SDS011;40985;53.180;5.800;2023-04-15T05:42:16;18.50;;;14.23;;
55090;SDS011;40985;53.180;5.800;2023-04-15T05:44:42;18.23;;;13.32;;
55090;SDS011;40985;53.180;5.800;2023-04-15T05:47:07;18.00;;;12.77;;
55090;SDS011;40985;53.180;5.800;2023-04-15T05:49:34;18.50;;;13.18;;
55090;SDS011;40985;53.180;5.800;2023-04-15T05:52:00;18.77;;;13.10;;
55090;SDS011;40985;53.180;5.800;2023-04-15T05:54:26;14.43;;;12.23;;
55090;SDS011;40985;53.180;5.800;2023-04-15T05:56:52;13.23;;;11.82;;
55090;SDS011;40985;53.180;5.800;2023-04-15T05:59:18;15.85;;;11.52;;
55090;SDS011;40985;53.180;5.800;2023-04-15T06:01:44;15.55;;;12.55;;
55090;SDS011;40985;53.180;5.800;2023-04-15T06:04:09;15.70;;;12.07;;
55090;SDS011;40985;53.180;5.800;2023-04-15T06:06:35;13.40;;;11.35;;
55090;SDS011;40985;53.180;5.800;2023-04-15T06:09:02;13.65;;;11.43;;
55090;SDS011;40985;53.180;5.800;2023-04-15T06:11:28;17.65;;;12.07;;
55090;SDS011;40985;53.180;5.800;2023-04-15T06:13:54;14.05;;;10.55;;
55090;SDS011;40985;53.180;5.800;2023-04-15T06:16:20;13.77;;;11.00;;
55090;SDS011;40985;53.180;5.800;2023-04-15T06:18:47;12.23;;;10.40;;
55090;SDS011;40985;53.180;5.800;2023-04-15T06:21:13;13.10;;;9.80;;
55090;SDS011;40985;53.180;5.800;2023-04-15T06:23:39;11.75;;;10.55;;
55090;SDS011;40985;53.180;5.800;2023-04-15T06:26:05;14.70;;;9.95;;
55090;SDS011;40985;53.180;5.800;2023-04-15T06:28:31;12.70;;;9.90;;
55090;SDS011;40985;53.180;5.800;2023-04-15T06:30:57;11.13;;;8.98;;
55090;SDS011;40985;53.180;5.800;2023-04-15T06:33:23;12.65;;;8.70;;
55090;SDS011;40985;53.180;5.800;2023-04-15T06:35:51;12.55;;;9.25;;
55090;SDS011;40985;53.180;5.800;2023-04-15T06:38:17;10.00;;;8.98;;
55090;SDS011;40985;53.180;5.800;2023-04-15T06:40:43;10.25;;;8.95;;
55090;SDS011;40985;53.180;5.800;2023-04-15T06:43:08;11.20;;;9.48;;
55090;SDS011;40985;53.180;5.800;2023-04-15T06:45:34;14.32;;;10.10;;
55090;SDS011;40985;53.180;5.800;2023-04-15T06:48:00;10.57;;;9.45;;
55090;SDS011;40985;53.180;5.800;2023-04-15T06:50:25;12.63;;;10.07;;
55090;SDS011;40985;53.180;5.800;2023-04-15T06:52:52;14.35;;;10.38;;
55090;SDS011;40985;53.180;5.800;2023-04-15T06:55:18;13.82;;;10.30;;
55090;SDS011;40985;53.180;5.800;2023-04-15T06:57:44;13.55;;;9.63;;
55090;SDS011;40985;53.180;5.800;2023-04-15T07:00:10;14.60;;;10.70;;
55090;SDS011;40985;53.180;5.800;2023-04-15T07:02:36;16.80;;;11.60;;
55090;SDS011;40985;53.180;5.800;2023-04-15T07:05:04;13.60;;;11.52;;
55090;SDS011;40985;53.180;5.800;2023-04-15T07:07:31;14.18;;;11.88;;
55090;SDS011;40985;53.180;5.800;2023-04-15T07:09:56;13.55;;;10.90;;
55090;SDS011;40985;53.180;5.800;2023-04-15T07:12:22;12.15;;;9.57;;
55090;SDS011;40985;53.180;5.800;2023-04-15T07:14:48;13.27;;;10.88;;
55090;SDS011;40985;53.180;5.800;2023-04-15T07:17:13;12.05;;;9.90;;
55090;SDS011;40985;53.180;5.800;2023-04-15T07:19:39;11.18;;;8.95;;
55090;SDS011;40985;53.180;5.800;2023-04-15T07:22:05;11.27;;;9.18;;
55090;SDS011;40985;53.180;5.800;2023-04-15T07:24:31;14.25;;;8.52;;
55090;SDS011;40985;53.180;5.800;2023-04-15T07:26:57;13.35;;;9.50;;
55090;SDS011;40985;53.180;5.800;2023-04-15T07:29:23;9.77;;;8.38;;
55090;SDS011;40985;53.180;5.800;2023-04-15T07:31:49;7.57;;;6.88;;
55090;SDS011;40985;53.180;5.800;2023-04-15T07:34:15;6.82;;;6.22;;
55090;SDS011;40985;53.180;5.800;2023-04-15T07:36:41;9.00;;;6.40;;
55090;SDS011;40985;53.180;5.800;2023-04-15T07:39:07;9.43;;;5.72;;
55090;SDS011;40985;53.180;5.800;2023-04-15T07:41:32;7.15;;;5.38;;
55090;SDS011;40985;53.180;5.800;2023-04-15T07:43:58;4.82;;;3.90;;
55090;SDS011;40985;53.180;5.800;2023-04-15T07:46:24;8.05;;;4.30;;
55090;SDS011;40985;53.180;5.800;2023-04-15T07:48:51;4.80;;;3.20;;
55090;SDS011;40985;53.180;5.800;2023-04-15T07:51:17;3.28;;;3.08;;
55090;SDS011;40985;53.180;5.800;2023-04-15T07:53:45;3.67;;;2.88;;
55090;SDS011;40985;53.180;5.800;2023-04-15T07:56:11;2.70;;;2.10;;
55090;SDS011;40985;53.180;5.800;2023-04-15T07:58:37;4.50;;;2.80;;
55090;SDS011;40985;53.180;5.800;2023-04-15T08:01:03;2.78;;;2.58;;
55090;SDS011;40985;53.180;5.800;2023-04-15T08:03:29;6.95;;;2.65;;
55090;SDS011;40985;53.180;5.800;2023-04-15T08:05:55;4.95;;;3.70;;
55090;SDS011;40985;53.180;5.800;2023-04-15T08:08:21;4.43;;;2.90;;
55090;SDS011;40985;53.180;5.800;2023-04-15T08:10:47;5.60;;;2.33;;
55090;SDS011;40985;53.180;5.800;2023-04-15T08:13:13;3.97;;;2.03;;
55090;SDS011;40985;53.180;5.800;2023-04-15T08:15:39;2.72;;;1.80;;
55090;SDS011;40985;53.180;5.800;2023-04-15T08:18:05;3.55;;;2.28;;
55090;SDS011;40985;53.180;5.800;2023-04-15T08:20:31;1.80;;;1.50;;
55090;SDS011;40985;53.180;5.800;2023-04-15T08:22:57;2.55;;;1.50;;
55090;SDS011;40985;53.180;5.800;2023-04-15T08:25:22;2.17;;;1.23;;
55090;SDS011;40985;53.180;5.800;2023-04-15T08:27:48;4.20;;;1.52;;
55090;SDS011;40985;53.180;5.800;2023-04-15T08:30:14;3.17;;;1.92;;
55090;SDS011;40985;53.180;5.800;2023-04-15T08:32:41;5.47;;;2.42;;
55090;SDS011;40985;53.180;5.800;2023-04-15T08:35:10;3.30;;;1.75;;
55090;SDS011;40985;53.180;5.800;2023-04-15T08:37:35;5.97;;;1.83;;
55090;SDS011;40985;53.180;5.800;2023-04-15T08:40:01;2.15;;;1.23;;
55090;SDS011;40985;53.180;5.800;2023-04-15T08:42:30;2.88;;;1.83;;
55090;SDS011;40985;53.180;5.800;2023-04-15T08:44:59;2.67;;;1.10;;
55090;SDS011;40985;53.180;5.800;2023-04-15T08:47:28;2.35;;;1.30;;
55090;SDS011;40985;53.180;5.800;2023-04-15T08:49:56;2.20;;;2.00;;
55090;SDS011;40985;53.180;5.800;2023-04-15T08:52:25;4.63;;;2.17;;
55090;SDS011;40985;53.180;5.800;2023-04-15T08:54:51;6.68;;;3.65;;
55090;SDS011;40985;53.180;5.800;2023-04-15T08:57:26;5.93;;;3.08;;
55090;SDS011;40985;53.180;5.800;2023-04-15T08:59:56;4.40;;;2.50;;
55090;SDS011;40985;53.180;5.800;2023-04-15T09:02:25;4.68;;;2.67;;
55090;SDS011;40985;53.180;5.800;2023-04-15T09:04:52;4.75;;;2.78;;
55090;SDS011;40985;53.180;5.800;2023-04-15T09:07:18;5.55;;;2.47;;
55090;SDS011;40985;53.180;5.800;2023-04-15T09:09:44;2.63;;;1.83;;
55090;SDS011;40985;53.180;5.800;2023-04-15T09:12:10;4.25;;;2.35;;
55090;SDS011;40985;53.180;5.800;2023-04-15T09:14:36;4.45;;;2.10;;
55090;SDS011;40985;53.180;5.800;2023-04-15T09:17:04;4.88;;;2.33;;
55090;SDS011;40985;53.180;5.800;2023-04-15T09:19:34;6.47;;;2.10;;
55090;SDS011;40985;53.180;5.800;2023-04-15T09:21:59;5.82;;;2.08;;
55090;SDS011;40985;53.180;5.800;2023-04-15T09:24:32;2.13;;;1.10;;
55090;SDS011;40985;53.180;5.800;2023-04-15T09:27:01;2.78;;;1.15;;
55090;SDS011;40985;53.180;5.800;2023-04-15T09:29:27;2.25;;;1.27;;
55090;SDS011;40985;53.180;5.800;2023-04-15T09:31:53;3.70;;;1.48;;
55090;SDS011;40985;53.180;5.800;2023-04-15T09:34:19;2.35;;;0.73;;
55090;SDS011;40985;53.180;5.800;2023-04-15T09:36:53;2.97;;;1.17;;
55090;SDS011;40985;53.180;5.800;2023-04-15T09:39:20;4.78;;;0.90;;
55090;SDS011;40985;53.180;5.800;2023-04-15T09:41:47;1.30;;;0.60;;
55090;SDS011;40985;53.180;5.800;2023-04-15T09:44:31;2.10;;;0.60;;
55090;SDS011;40985;53.180;5.800;2023-04-15T09:46:57;3.42;;;1.33;;
55090;SDS011;40985;53.180;5.800;2023-04-15T09:49:22;2.42;;;0.88;;
55090;SDS011;40985;53.180;5.800;2023-04-15T09:51:48;3.65;;;0.88;;
55090;SDS011;40985;53.180;5.800;2023-04-15T09:54:20;1.70;;;0.50;;
55090;SDS011;40985;53.180;5.800;2023-04-15T09:56:46;0.75;;;0.60;;
55090;SDS011;40985;53.180;5.800;2023-04-15T09:59:12;2.42;;;0.60;;
55090;SDS011;40985;53.180;5.800;2023-04-15T10:01:38;3.10;;;0.60;;
55090;SDS011;40985;53.180;5.800;2023-04-15T10:04:05;2.22;;;0.45;;
55090;SDS011;40985;53.180;5.800;2023-04-15T10:06:31;2.78;;;0.40;;
55090;SDS011;40985;53.180;5.800;2023-04-15T10:09:04;2.22;;;0.32;;
55090;SDS011;40985;53.180;5.800;2023-04-15T10:11:31;1.73;;;0.30;;
55090;SDS011;40985;53.180;5.800;2023-04-15T10:14:03;3.90;;;0.80;;
55090;SDS011;40985;53.180;5.800;2023-04-15T10:16:30;1.73;;;0.40;;
55090;SDS011;40985;53.180;5.800;2023-04-15T10:18:57;1.00;;;0.30;;
55090;SDS011;40985;53.180;5.800;2023-04-15T10:21:29;3.05;;;0.30;;
55090;SDS011;40985;53.180;5.800;2023-04-15T10:23:54;3.42;;;0.50;;
55090;SDS011;40985;53.180;5.800;2023-04-15T10:26:21;1.63;;;0.30;;
55090;SDS011;40985;53.180;5.800;2023-04-15T10:28:48;0.73;;;0.28;;
55090;SDS011;40985;53.180;5.800;2023-04-15T10:31:14;2.28;;;0.20;;
55090;SDS011;40985;53.180;5.800;2023-04-15T10:33:42;0.75;;;0.20;;
55090;SDS011;40985;53.180;5.800;2023-04-15T10:36:09;0.60;;;0.20;;
55090;SDS011;40985;53.180;5.800;2023-04-15T10:38:40;2.33;;;0.20;;
55090;SDS011;40985;53.180;5.800;2023-04-15T10:41:20;4.60;;;0.57;;
55090;SDS011;40985;53.180;5.800;2023-04-15T10:46:21;0.85;;;0.20;;
55090;SDS011;40985;53.180;5.800;2023-04-15T10:54:16;0.80;;;0.30;;
55090;SDS011;40985;53.180;5.800;2023-04-15T10:59:31;1.85;;;0.20;;
55090;SDS011;40985;53.180;5.800;2023-04-15T11:02:17;3.15;;;0.43;;
55090;SDS011;40985;53.180;5.800;2023-04-15T11:04:55;1.45;;;0.20;;
55090;SDS011;40985;53.180;5.800;2023-04-15T11:07:35;1.33;;;0.22;;
55090;SDS011;40985;53.180;5.800;2023-04-15T11:12:37;0.90;;;0.30;;
55090;SDS011;40985;53.180;5.800;2023-04-15T11:17:54;6.18;;;0.55;;
55090;SDS011;40985;53.180;5.800;2023-04-15T11:20:24;1.10;;;0.30;;
55090;SDS011;40985;53.180;5.800;2023-04-15T11:22:52;3.20;;;0.47;;
55090;SDS011;40985;53.180;5.800;2023-04-15T11:25:22;3.30;;;0.30;;
55090;SDS011;40985;53.180;5.800;2023-04-15T11:27:49;3.58;;;0.38;;
55090;SDS011;40985;53.180;5.800;2023-04-15T11:30:24;1.52;;;0.20;;
55090;SDS011;40985;53.180;5.800;2023-04-15T11:32:52;2.58;;;0.35;;
55090;SDS011;40985;53.180;5.800;2023-04-15T11:35:21;1.25;;;0.65;;
55090;SDS011;40985;53.180;5.800;2023-04-15T11:37:48;4.10;;;0.77;;
55090;SDS011;40985;53.180;5.800;2023-04-15T11:40:25;1.30;;;0.20;;
55090;SDS011;40985;53.180;5.800;2023-04-15T11:48:23;1.73;;;0.20;;
55090;SDS011;40985;53.180;5.800;2023-04-15T11:50:59;2.10;;;0.30;;
55090;SDS011;40985;53.180;5.800;2023-04-15T11:53:36;3.53;;;0.50;;
55090;SDS011;40985;53.180;5.800;2023-04-15T11:56:05;4.38;;;0.30;;
55090;SDS011;40985;53.180;5.800;2023-04-15T11:58:33;4.53;;;0.25;;
55090;SDS011;40985;53.180;5.800;2023-04-15T12:01:01;4.03;;;0.28;;
55090;SDS011;40985;53.180;5.800;2023-04-15T12:03:30;2.28;;;0.70;;
55090;SDS011;40985;53.180;5.800;2023-04-15T12:11:45;4.93;;;0.25;;
55090;SDS011;40985;53.180;5.800;2023-04-15T12:16:44;2.58;;;0.30;;
55090;SDS011;40985;53.180;5.800;2023-04-15T12:19:12;4.00;;;0.30;;
55090;SDS011;40985;53.180;5.800;2023-04-15T12:21:39;4.20;;;0.30;;
55090;SDS011;40985;53.180;5.800;2023-04-15T12:24:08;4.25;;;0.30;;
55090;SDS011;40985;53.180;5.800;2023-04-15T12:29:13;6.50;;;0.30;;
55090;SDS011;40985;53.180;5.800;2023-04-15T12:31:50;5.57;;;0.45;;
55090;SDS011;40985;53.180;5.800;2023-04-15T12:34:29;3.72;;;0.20;;
55090;SDS011;40985;53.180;5.800;2023-04-15T12:37:00;3.40;;;0.28;;
55090;SDS011;40985;53.180;5.800;2023-04-15T12:39:28;5.47;;;0.40;;
55090;SDS011;40985;53.180;5.800;2023-04-15T12:41:56;4.88;;;0.40;;
55090;SDS011;40985;53.180;5.800;2023-04-15T12:44:24;4.28;;;0.20;;
55090;SDS011;40985;53.180;5.800;2023-04-15T12:46:50;3.60;;;0.40;;
55090;SDS011;40985;53.180;5.800;2023-04-15T12:49:20;6.03;;;0.50;;
55090;SDS011;40985;53.180;5.800;2023-04-15T12:51:47;7.63;;;0.93;;
55090;SDS011;40985;53.180;5.800;2023-04-15T12:54:15;4.43;;;0.20;;
55090;SDS011;40985;53.180;5.800;2023-04-15T12:56:46;4.28;;;0.38;;
55090;SDS011;40985;53.180;5.800;2023-04-15T12:59:13;18.35;;;1.50;;
55090;SDS011;40985;53.180;5.800;2023-04-15T13:01:40;7.47;;;0.30;;
55090;SDS011;40985;53.180;5.800;2023-04-15T13:04:06;7.38;;;0.50;;
55090;SDS011;40985;53.180;5.800;2023-04-15T13:06:32;9.35;;;0.40;;
55090;SDS011;40985;53.180;5.800;2023-04-15T13:09:01;8.68;;;0.40;;
55090;SDS011;40985;53.180;5.800;2023-04-15T13:11:28;8.90;;;0.40;;
55090;SDS011;40985;53.180;5.800;2023-04-15T13:14:07;8.43;;;0.50;;
55090;SDS011;40985;53.180;5.800;2023-04-15T13:16:33;10.63;;;1.17;;
55090;SDS011;40985;53.180;5.800;2023-04-15T13:18:59;6.82;;;0.63;;
55090;SDS011;40985;53.180;5.800;2023-04-15T13:21:29;7.82;;;0.30;;
55090;SDS011;40985;53.180;5.800;2023-04-15T13:23:58;2.65;;;0.22;;
55090;SDS011;40985;53.180;5.800;2023-04-15T13:26:24;5.43;;;0.70;;
55090;SDS011;40985;53.180;5.800;2023-04-15T13:28:50;5.10;;;0.20;;
55090;SDS011;40985;53.180;5.800;2023-04-15T13:31:16;7.55;;;0.20;;
55090;SDS011;40985;53.180;5.800;2023-04-15T13:33:45;5.50;;;0.30;;
55090;SDS011;40985;53.180;5.800;2023-04-15T13:36:11;7.20;;;0.40;;
55090;SDS011;40985;53.180;5.800;2023-04-15T13:38:38;6.30;;;0.30;;
55090;SDS011;40985;53.180;5.800;2023-04-15T13:41:03;8.05;;;0.70;;
55090;SDS011;40985;53.180;5.800;2023-04-15T13:43:29;4.57;;;0.22;;
55090;SDS011;40985;53.180;5.800;2023-04-15T13:45:58;6.70;;;0.30;;
55090;SDS011;40985;53.180;5.800;2023-04-15T13:48:24;6.22;;;0.35;;
55090;SDS011;40985;53.180;5.800;2023-04-15T13:50:50;2.75;;;0.20;;
55090;SDS011;40985;53.180;5.800;2023-04-15T13:53:16;3.47;;;0.20;;
55090;SDS011;40985;53.180;5.800;2023-04-15T13:55:41;5.32;;;0.30;;
55090;SDS011;40985;53.180;5.800;2023-04-15T13:58:08;4.32;;;0.40;;
55090;SDS011;40985;53.180;5.800;2023-04-15T14:00:34;8.18;;;0.43;;
55090;SDS011;40985;53.180;5.800;2023-04-15T14:03:00;5.55;;;0.65;;
55090;SDS011;40985;53.180;5.800;2023-04-15T14:05:25;13.75;;;0.68;;
55090;SDS011;40985;53.180;5.800;2023-04-15T14:07:51;10.57;;;0.73;;
55090;SDS011;40985;53.180;5.800;2023-04-15T14:10:18;5.22;;;0.30;;
55090;SDS011;40985;53.180;5.800;2023-04-15T14:12:44;12.07;;;0.30;;
55090;SDS011;40985;53.180;5.800;2023-04-15T14:15:09;8.75;;;0.40;;
55090;SDS011;40985;53.180;5.800;2023-04-15T14:17:35;10.13;;;0.63;;
55090;SDS011;40985;53.180;5.800;2023-04-15T14:20:01;5.75;;;0.35;;
55090;SDS011;40985;53.180;5.800;2023-04-15T14:22:27;8.60;;;0.60;;
55090;SDS011;40985;53.180;5.800;2023-04-15T14:24:53;6.97;;;0.50;;
55090;SDS011;40985;53.180;5.800;2023-04-15T14:27:21;9.60;;;0.70;;
55090;SDS011;40985;53.180;5.800;2023-04-15T14:29:47;5.47;;;0.30;;
55090;SDS011;40985;53.180;5.800;2023-04-15T14:32:13;3.75;;;0.38;;
55090;SDS011;40985;53.180;5.800;2023-04-15T14:34:40;9.85;;;0.30;;
55090;SDS011;40985;53.180;5.800;2023-04-15T14:37:05;5.55;;;0.30;;
55090;SDS011;40985;53.180;5.800;2023-04-15T14:39:31;10.23;;;0.80;;
55090;SDS011;40985;53.180;5.800;2023-04-15T14:41:58;7.03;;;0.85;;
55090;SDS011;40985;53.180;5.800;2023-04-15T14:44:24;6.18;;;0.80;;
55090;SDS011;40985;53.180;5.800;2023-04-15T14:46:50;9.18;;;0.35;;
55090;SDS011;40985;53.180;5.800;2023-04-15T14:49:16;9.38;;;1.48;;
55090;SDS011;40985;53.180;5.800;2023-04-15T14:51:41;5.00;;;0.20;;
55090;SDS011;40985;53.180;5.800;2023-04-15T14:54:07;2.55;;;0.20;;
55090;SDS011;40985;53.180;5.800;2023-04-15T14:56:33;4.32;;;0.30;;
55090;SDS011;40985;53.180;5.800;2023-04-15T14:58:58;3.05;;;0.30;;
55090;SDS011;40985;53.180;5.800;2023-04-15T15:01:24;3.03;;;0.28;;
55090;SDS011;40985;53.180;5.800;2023-04-15T15:03:50;6.03;;;0.40;;
55090;SDS011;40985;53.180;5.800;2023-04-15T15:06:17;2.55;;;0.20;;
55090;SDS011;40985;53.180;5.800;2023-04-15T15:08:44;5.13;;;0.68;;